createdAt,value
2019-02-28T00:02:30.582Z,44.63
2019-02-28T00:05:05.749Z,46.97
2019-02-28T00:07:34.435Z,47.40
2019-02-28T00:10:06.127Z,46.13
2019-02-28T00:12:37.170Z,45.20
2019-02-28T00:15:08.848Z,44.47
2019-02-28T00:17:42.586Z,45.73
2019-02-28T00:20:18.420Z,46.87
2019-02-28T00:22:49.662Z,51.50
2019-02-28T00:25:20.584Z,46.87
2019-02-28T00:27:53.442Z,44.47
2019-02-28T00:33:44.217Z,45.33
2019-02-28T00:36:16.366Z,46.33
2019-02-28T00:38:48.322Z,47.47
2019-02-28T00:44:17.099Z,51.60
2019-02-28T00:46:48.023Z,50.30
2019-02-28T00:49:26.262Z,53.90
2019-02-28T00:52:01.540Z,54.83
2019-02-28T00:54:32.155Z,52.77
2019-02-28T01:00:24.663Z,53.53
2019-02-28T01:02:55.559Z,50.47
2019-02-28T01:05:26.642Z,56.60
2019-02-28T01:08:07.026Z,50.13
2019-02-28T01:10:54.101Z,55.70
2019-02-28T01:13:28.043Z,52.97
2019-02-28T01:38:25.443Z,59.53
2019-02-28T01:40:56.819Z,67.47
2019-02-28T01:43:28.768Z,55.37
2019-02-28T01:46:00.680Z,58.83
2019-02-28T01:48:31.583Z,61.90
2019-02-28T01:51:02.570Z,60.60
2019-02-28T01:53:33.865Z,60.53
2019-02-28T01:56:04.801Z,66.40
2019-02-28T01:58:36.600Z,54.60
2019-02-28T02:01:08.241Z,63.73
2019-02-28T02:03:40.723Z,67.77
2019-02-28T02:06:12.593Z,61.80
2019-02-28T02:08:43.613Z,65.30
2019-02-28T02:11:15.077Z,58.07
2019-02-28T02:13:47.177Z,64.73
2019-02-28T02:16:18.554Z,63.83
2019-02-28T02:18:49.581Z,63.87
2019-02-28T02:21:20.622Z,61.17
2019-02-28T02:23:52.991Z,65.63
2019-02-28T02:26:25.269Z,60.63
2019-02-28T02:29:00.862Z,67.83
2019-02-28T02:31:29.336Z,62.00
2019-02-28T02:34:00.387Z,67.67
2019-02-28T02:36:31.720Z,71.17
2019-02-28T02:39:02.859Z,73.10
2019-02-28T02:41:35.546Z,67.57
2019-02-28T02:44:06.569Z,72.50
2019-02-28T02:46:37.617Z,73.73
2019-02-28T02:49:08.751Z,68.83
2019-02-28T02:51:39.841Z,68.60
2019-02-28T02:54:17.920Z,70.63
2019-02-28T02:56:43.911Z,74.13
2019-02-28T02:59:15.007Z,65.77
2019-02-28T03:01:45.961Z,70.43
2019-02-28T03:04:22.949Z,69.07
2019-02-28T03:06:49.602Z,67.90
2019-02-28T03:09:20.669Z,74.17
2019-02-28T03:11:52.118Z,71.00
2019-02-28T03:14:23.059Z,67.67
2019-02-28T03:16:55.771Z,75.50
2019-02-28T03:19:33.126Z,66.63
2019-02-28T03:22:00.268Z,74.17
2019-02-28T03:24:31.299Z,71.20
2019-02-28T03:27:03.340Z,75.90
2019-02-28T03:29:34.426Z,71.90
2019-02-28T03:32:05.514Z,74.00
2019-02-28T03:34:37.961Z,68.10
2019-02-28T03:37:10.949Z,78.03
2019-02-28T03:39:42.451Z,74.20
2019-02-28T03:42:13.395Z,75.37
2019-02-28T03:44:44.717Z,71.50
2019-02-28T03:47:22.473Z,64.83
2019-02-28T03:49:50.096Z,70.87
2019-02-28T03:52:21.655Z,74.60
2019-02-28T03:54:52.606Z,74.97
2019-02-28T03:57:27.943Z,80.50
2019-02-28T03:59:56.994Z,73.70
2019-02-28T04:02:29.122Z,74.30
2019-02-28T04:05:00.303Z,73.97
2019-02-28T04:07:31.474Z,75.93
2019-02-28T04:10:02.420Z,73.27
2019-02-28T04:12:35.056Z,72.97
2019-02-28T04:15:10.184Z,71.23
2019-02-28T04:17:42.014Z,70.73
2019-02-28T04:20:13.628Z,75.90
2019-02-28T04:22:44.650Z,70.73
2019-02-28T04:25:22.465Z,76.57
2019-02-28T04:27:48.776Z,69.87
2019-02-28T04:30:19.836Z,73.10
2019-02-28T04:32:52.831Z,74.83
2019-02-28T04:35:25.237Z,75.87
2019-02-28T04:37:56.549Z,77.17
2019-02-28T04:40:27.719Z,74.40
2019-02-28T04:42:59.836Z,74.50
2019-02-28T04:45:31.126Z,71.13
2019-02-28T04:48:02.461Z,69.30
2019-02-28T04:50:33.914Z,71.77
2019-02-28T04:53:04.899Z,71.77
2019-02-28T04:55:37.323Z,78.90
2019-02-28T04:58:09.031Z,68.03
2019-02-28T05:00:40.059Z,71.50
2019-02-28T05:03:11.283Z,77.87
2019-02-28T05:05:46.591Z,67.93
2019-02-28T05:08:14.942Z,74.43
2019-02-28T05:10:46.619Z,71.10
2019-02-28T05:13:17.631Z,78.43
2019-02-28T05:15:48.528Z,76.17
2019-02-28T05:18:19.515Z,76.90
2019-02-28T05:20:50.859Z,82.10
2019-02-28T05:23:21.902Z,76.83
2019-02-28T05:25:52.926Z,77.27
2019-02-28T05:28:23.943Z,74.00
2019-02-28T05:30:55.384Z,76.60
2019-02-28T05:33:26.460Z,72.00
2019-02-28T05:36:00.143Z,74.57
2019-02-28T05:38:31.546Z,77.93
2019-02-28T05:41:02.894Z,79.20
2019-02-28T05:43:33.936Z,73.93
2019-02-28T05:46:04.968Z,73.97
2019-02-28T05:48:38.764Z,72.10
2019-02-28T06:26:33.793Z,69.63
2019-02-28T06:29:05.721Z,71.37
2019-02-28T06:31:36.914Z,69.53
2019-02-28T06:34:08.692Z,78.93
2019-02-28T06:36:40.391Z,79.72
2019-02-28T06:39:11.378Z,66.90
2019-02-28T06:41:42.456Z,67.93
2019-02-28T06:44:13.512Z,71.03
2019-02-28T06:46:44.535Z,65.83
2019-02-28T06:49:16.109Z,69.97
2019-02-28T06:51:48.384Z,68.80
2019-02-28T06:54:20.194Z,66.97
2019-02-28T06:56:54.090Z,66.87
2019-02-28T06:59:23.923Z,72.20
2019-02-28T07:01:57.566Z,70.57
2019-02-28T07:04:28.032Z,65.90
2019-02-28T07:06:59.159Z,66.50
2019-02-28T07:09:30.580Z,71.47
2019-02-28T07:12:01.631Z,65.97
2019-02-28T07:14:32.733Z,65.53
2019-02-28T07:17:07.447Z,64.07
2019-02-28T07:19:37.068Z,61.60
2019-02-28T07:22:08.116Z,68.90
2019-02-28T07:24:39.549Z,64.47
2019-02-28T07:27:10.546Z,65.50
2019-02-28T07:29:42.969Z,66.50
2019-02-28T07:32:14.622Z,60.73
2019-02-28T07:34:45.691Z,64.20
2019-02-28T07:37:18.881Z,64.27
2019-02-28T07:39:49.740Z,64.17
2019-02-28T07:42:20.690Z,61.93
2019-02-28T07:44:53.671Z,62.70
2019-02-28T07:47:25.458Z,63.53
2019-02-28T07:49:56.581Z,68.05
2019-02-28T07:52:32.441Z,66.07
2019-02-28T07:55:00.942Z,60.80
2019-02-28T07:57:32.786Z,61.93
2019-02-28T08:00:05.358Z,65.00
2019-02-28T08:02:39.261Z,58.27
2019-02-28T08:05:09.366Z,59.60
2019-02-28T08:07:40.818Z,62.70
2019-02-28T08:10:15.995Z,59.67
2019-02-28T08:12:46.420Z,55.87
2019-02-28T08:15:22.229Z,62.10
2019-02-28T08:17:52.622Z,65.77
2019-02-28T08:20:23.624Z,60.33
2019-02-28T08:22:56.556Z,59.20
2019-02-28T08:25:28.671Z,58.03
2019-02-28T08:28:00.872Z,58.33
2019-02-28T08:30:32.008Z,57.87
2019-02-28T08:33:03.130Z,58.67
2019-02-28T08:35:35.811Z,58.60
2019-02-28T08:38:08.275Z,54.87
2019-02-28T08:40:39.390Z,55.00
2019-02-28T08:43:13.403Z,55.73
2019-02-28T08:45:43.163Z,54.67
2019-02-28T08:48:15.011Z,55.73
2019-02-28T08:50:46.178Z,56.50
2019-02-28T08:53:17.277Z,56.13
2019-02-28T08:55:48.695Z,57.67
2019-02-28T08:58:19.709Z,59.47
2019-02-28T09:00:51.653Z,56.57
2019-02-28T09:03:24.282Z,55.83
2019-02-28T09:05:55.781Z,58.83
2019-02-28T09:08:26.869Z,53.27
2019-02-28T09:10:58.233Z,54.07
2019-02-28T09:13:29.209Z,60.40
2019-02-28T09:16:04.939Z,56.53
2019-02-28T09:18:35.020Z,56.57
2019-02-28T09:21:05.954Z,60.13
2019-02-28T09:23:37.722Z,59.07
2019-02-28T09:26:09.901Z,57.47
2019-02-28T09:28:40.985Z,64.23
2019-02-28T09:31:12.134Z,56.00
2019-02-28T09:33:43.677Z,57.13
2019-02-28T09:36:20.205Z,52.77
2019-02-28T09:38:56.652Z,54.20
2019-02-28T09:41:22.058Z,59.93
2019-02-28T09:43:53.098Z,55.70
2019-02-28T09:46:24.034Z,55.50
2019-02-28T09:48:55.123Z,54.93
2019-02-28T09:51:31.646Z,54.43
2019-02-28T09:53:59.847Z,56.50
2019-02-28T09:56:30.805Z,53.33
2019-02-28T09:59:03.276Z,55.47
2019-02-28T10:01:34.496Z,57.70
2019-02-28T10:04:05.564Z,54.70
2019-02-28T10:06:36.996Z,62.23
2019-02-28T10:09:08.732Z,59.93
2019-02-28T10:11:40.786Z,68.57
2019-02-28T10:14:12.922Z,64.17
2019-02-28T10:16:43.972Z,64.73
2019-02-28T10:19:14.956Z,67.70
2019-02-28T10:21:51.922Z,71.63
2019-02-28T10:24:18.916Z,77.83
2019-02-28T10:26:51.349Z,79.97
2019-02-28T10:29:22.603Z,78.10
2019-02-28T10:31:53.997Z,74.40
2019-02-28T10:34:26.370Z,85.50
2019-02-28T10:36:57.818Z,88.87
2019-02-28T10:39:29.184Z,90.87
2019-02-28T10:42:01.564Z,93.93
2019-02-28T10:44:33.451Z,101.53
2019-02-28T10:47:04.446Z,95.07
2019-02-28T10:49:36.139Z,91.73
2019-02-28T10:52:07.084Z,89.17
2019-02-28T10:54:38.069Z,95.30
2019-02-28T10:57:09.072Z,95.53
2019-02-28T10:59:40.114Z,84.03
2019-02-28T11:02:13.992Z,84.17
2019-02-28T11:04:45.312Z,79.17
2019-02-28T11:07:16.295Z,83.70
2019-02-28T11:09:47.691Z,75.77
2019-02-28T11:12:23.733Z,80.83
2019-02-28T11:14:53.513Z,74.37
2019-02-28T11:17:25.967Z,73.70
2019-02-28T11:19:56.941Z,69.23
2019-02-28T11:22:29.390Z,70.87
2019-02-28T11:25:01.000Z,63.97
2019-02-28T11:27:33.963Z,63.77
2019-02-28T11:30:07.463Z,63.83
2019-02-28T11:32:39.706Z,53.70
2019-02-28T11:35:11.509Z,54.40
2019-02-28T11:37:46.018Z,55.13
2019-02-28T11:40:16.904Z,52.10
2019-02-28T11:42:47.883Z,46.27
2019-02-28T11:45:21.905Z,42.37
2019-02-28T11:47:56.550Z,47.77
2019-02-28T11:50:27.572Z,42.63
2019-02-28T11:53:03.216Z,42.50
2019-02-28T11:55:31.314Z,41.93
2019-02-28T11:58:02.967Z,30.57
2019-02-28T12:00:35.838Z,33.03
2019-02-28T12:03:07.052Z,29.10
2019-02-28T12:05:38.089Z,23.63
2019-02-28T12:08:10.426Z,19.53
2019-02-28T12:10:41.711Z,26.70
2019-02-28T12:13:13.093Z,18.57
2019-02-28T12:15:44.144Z,22.27
2019-02-28T12:18:15.205Z,23.07
2019-02-28T12:20:46.805Z,19.40
2019-02-28T12:23:23.100Z,20.57
2019-02-28T12:25:51.424Z,18.60
2019-02-28T12:28:24.410Z,19.73
2019-02-28T12:30:57.252Z,15.13
2019-02-28T12:33:28.812Z,20.57
2019-02-28T12:36:00.206Z,16.47
2019-02-28T12:38:32.365Z,16.50
2019-02-28T12:41:03.304Z,19.27
2019-02-28T12:43:34.294Z,17.60
2019-02-28T12:46:05.624Z,19.60
2019-02-28T12:48:37.003Z,16.37
2019-02-28T12:51:08.002Z,16.37
2019-02-28T12:53:39.418Z,17.43
2019-02-28T12:56:13.917Z,14.60
2019-02-28T12:58:43.881Z,13.50
2019-02-28T13:01:15.031Z,12.83
2019-02-28T13:03:46.045Z,16.73
2019-02-28T13:06:23.395Z,14.53
2019-02-28T13:08:53.425Z,18.23
2019-02-28T13:11:24.222Z,18.30
2019-02-28T13:13:55.364Z,16.47
2019-02-28T13:16:26.981Z,22.97
2019-02-28T13:18:58.415Z,17.60
2019-02-28T13:21:31.247Z,21.77
2019-02-28T13:24:06.041Z,15.83
2019-02-28T13:26:35.389Z,10.63
2019-02-28T13:29:06.447Z,17.37
2019-02-28T13:31:38.387Z,13.33
2019-02-28T13:34:10.188Z,11.70
2019-02-28T13:36:42.477Z,16.90
2019-02-28T13:39:13.958Z,17.03
2019-02-28T13:41:45.159Z,13.17
2019-02-28T13:44:16.229Z,13.53
2019-02-28T13:46:47.637Z,15.37
2019-02-28T13:49:19.540Z,16.00
2019-02-28T13:51:50.607Z,14.53
2019-02-28T13:54:21.710Z,12.77
2019-02-28T13:56:52.741Z,10.37
2019-02-28T13:59:24.032Z,12.93
2019-02-28T14:01:55.488Z,14.63
2019-02-28T14:04:27.469Z,12.47
2019-02-28T14:06:58.453Z,11.13
2019-02-28T14:09:29.496Z,11.43
2019-02-28T14:12:00.880Z,9.40
2019-02-28T14:14:33.174Z,8.50
2019-02-28T14:17:15.779Z,9.00
2019-02-28T14:19:47.043Z,12.37
2019-02-28T14:22:19.727Z,10.93
2019-02-28T14:24:50.667Z,9.07
2019-02-28T14:27:25.211Z,14.73
2019-02-28T14:29:54.690Z,13.43
2019-02-28T14:32:25.637Z,9.20
2019-02-28T14:34:57.305Z,11.40
2019-02-28T14:37:29.378Z,9.73
2019-02-28T14:40:00.386Z,10.67
2019-02-28T14:42:32.102Z,9.70
2019-02-28T14:45:04.011Z,8.23
2019-02-28T14:47:36.246Z,9.30
2019-02-28T14:50:07.759Z,15.85
2019-02-28T14:52:39.413Z,10.93
2019-02-28T14:55:13.754Z,10.10
2019-02-28T14:57:44.740Z,9.77
2019-02-28T15:00:17.712Z,9.40
2019-02-28T15:02:50.680Z,6.87
2019-02-28T15:05:21.725Z,5.33
2019-02-28T15:07:53.040Z,5.53
2019-02-28T15:10:24.005Z,6.53
2019-02-28T15:12:55.331Z,4.37
2019-02-28T15:15:27.621Z,4.53
2019-02-28T15:17:58.547Z,9.90
2019-02-28T15:20:32.788Z,5.53
2019-02-28T15:23:02.620Z,5.53
2019-02-28T15:25:33.534Z,6.70
2019-02-28T15:31:26.199Z,3.67
2019-02-28T15:33:57.523Z,7.20
2019-02-28T15:36:28.913Z,5.73
2019-02-28T15:39:00.361Z,11.53
2019-02-28T15:41:33.723Z,6.27
2019-02-28T15:44:04.389Z,6.97
2019-02-28T15:46:36.048Z,8.30
2019-02-28T15:49:09.998Z,6.27
2019-02-28T15:51:39.697Z,6.90
2019-02-28T15:54:11.577Z,5.17
2019-02-28T15:56:42.984Z,7.00
2019-02-28T15:59:14.865Z,6.73
2019-02-28T16:01:47.034Z,5.50
2019-02-28T16:04:18.023Z,8.30
2019-02-28T16:06:56.564Z,6.97
2019-02-28T16:09:22.265Z,7.43
2019-02-28T16:11:53.198Z,6.20
2019-02-28T16:14:24.144Z,6.12
2019-02-28T16:16:56.766Z,7.43
2019-02-28T16:19:27.803Z,6.57
2019-02-28T16:21:58.742Z,9.60
2019-02-28T16:24:29.789Z,6.50
2019-02-28T16:27:00.840Z,8.30
2019-02-28T16:29:32.160Z,6.63
2019-02-28T16:32:03.489Z,10.97
2019-02-28T16:34:34.897Z,10.50
2019-02-28T16:37:05.943Z,7.73
2019-02-28T16:39:37.003Z,8.03
2019-02-28T16:42:08.349Z,6.63
2019-02-28T16:44:39.514Z,5.50
2019-02-28T16:47:11.569Z,8.13
2019-02-28T16:49:44.489Z,12.93
2019-02-28T16:52:15.711Z,6.40
2019-02-28T16:54:46.968Z,7.80
2019-02-28T16:57:17.867Z,6.57
2019-02-28T16:59:49.107Z,10.13
2019-02-28T17:02:20.193Z,7.63
2019-02-28T17:04:51.997Z,7.63
2019-02-28T17:07:23.931Z,7.83
2019-02-28T17:09:55.335Z,14.70
2019-02-28T17:12:48.671Z,13.17
2019-02-28T17:15:24.866Z,7.40
2019-02-28T17:18:02.595Z,6.80
2019-02-28T17:20:33.627Z,5.73
2019-02-28T17:23:04.738Z,7.60
2019-02-28T17:25:35.696Z,10.77
2019-02-28T17:28:29.823Z,15.40
2019-02-28T17:31:21.314Z,10.07
2019-02-28T17:33:52.589Z,9.53
2019-02-28T17:36:23.560Z,12.43
2019-02-28T17:38:54.622Z,11.70
2019-02-28T17:41:25.894Z,12.97
2019-02-28T17:44:47.389Z,8.17
2019-02-28T17:47:56.154Z,8.40
2019-02-28T17:50:42.824Z,10.13
2019-02-28T17:53:52.453Z,10.77
2019-02-28T17:56:58.058Z,11.00
2019-02-28T18:03:29.531Z,12.57
2019-02-28T18:06:36.880Z,7.80
2019-02-28T18:09:32.222Z,5.73
2019-02-28T18:12:49.903Z,9.07
2019-02-28T18:16:00.622Z,5.03
2019-02-28T18:19:08.496Z,5.40
2019-02-28T18:25:31.862Z,5.70
2019-02-28T18:28:42.282Z,10.63
2019-02-28T18:31:15.108Z,9.97
2019-02-28T18:34:04.718Z,12.70
2019-02-28T18:36:35.799Z,12.63
2019-02-28T18:39:11.438Z,9.53
2019-02-28T18:41:43.077Z,14.57
2019-02-28T18:44:14.786Z,16.83
2019-02-28T18:46:45.830Z,12.23
2019-02-28T18:49:16.832Z,13.70
2019-02-28T18:51:47.836Z,14.57
2019-02-28T18:54:18.754Z,15.53
2019-02-28T18:56:49.808Z,17.13
2019-02-28T18:59:20.750Z,15.40
2019-02-28T19:01:51.690Z,15.90
2019-02-28T19:04:22.658Z,22.70
2019-02-28T19:06:53.692Z,18.33
2019-02-28T19:09:25.408Z,18.20
2019-02-28T19:11:56.463Z,18.10
2019-02-28T19:14:27.572Z,13.77
2019-02-28T19:16:58.595Z,17.90
2019-02-28T19:19:29.963Z,15.57
2019-02-28T19:22:01.343Z,18.60
2019-02-28T19:24:32.399Z,17.43
2019-02-28T19:27:03.534Z,17.53
2019-02-28T19:29:34.522Z,20.93
2019-02-28T19:32:05.918Z,20.67
2019-02-28T19:34:37.060Z,18.17
2019-02-28T19:37:08.443Z,18.20
2019-02-28T19:39:39.416Z,18.70
2019-02-28T19:42:10.451Z,17.57
2019-02-28T19:44:41.549Z,21.53
2019-02-28T19:47:12.469Z,23.27
2019-02-28T19:49:43.461Z,20.43
2019-02-28T19:52:15.169Z,20.30
2019-02-28T19:54:46.111Z,19.30
2019-02-28T19:57:17.043Z,21.57
2019-02-28T19:59:48.372Z,23.03
2019-02-28T20:02:19.349Z,17.30
2019-02-28T20:04:50.255Z,22.30
2019-02-28T20:07:21.276Z,19.83
2019-02-28T20:09:52.271Z,27.10
2019-02-28T20:12:24.340Z,22.17
2019-02-28T20:14:55.658Z,22.70
2019-02-28T20:17:26.576Z,18.40
2019-02-28T20:19:57.960Z,17.10
2019-02-28T20:22:28.871Z,19.07
2019-02-28T20:25:00.759Z,26.47
2019-02-28T20:27:32.522Z,18.80
2019-02-28T20:30:04.099Z,20.33
2019-02-28T20:32:35.603Z,15.07
2019-02-28T20:35:07.520Z,15.67
2019-02-28T20:37:38.511Z,16.43
2019-02-28T20:40:11.335Z,16.63
2019-02-28T20:42:42.418Z,15.37
2019-02-28T20:45:13.469Z,14.23
2019-02-28T20:47:44.850Z,13.27
2019-02-28T20:50:22.168Z,17.40
2019-02-28T20:52:53.169Z,19.93
2019-02-28T20:55:24.060Z,10.40
2019-02-28T20:57:55.055Z,10.73
2019-02-28T21:00:27.509Z,12.67
2019-02-28T21:02:58.953Z,12.90
2019-02-28T21:05:29.935Z,14.77
2019-02-28T21:08:01.233Z,13.90
2019-02-28T21:10:33.802Z,10.13
2019-02-28T21:13:04.911Z,13.80
2019-02-28T21:15:36.274Z,10.40
2019-02-28T21:18:08.259Z,10.90
2019-02-28T21:20:39.241Z,13.13
2019-02-28T21:23:10.228Z,12.30
2019-02-28T21:25:41.204Z,14.43
2019-02-28T21:28:13.208Z,12.77
2019-02-28T21:30:44.196Z,18.13
2019-02-28T21:33:15.533Z,13.40
2019-02-28T21:35:49.773Z,15.97
2019-02-28T21:38:20.701Z,18.37
2019-02-28T21:40:51.768Z,15.37
2019-02-28T21:43:22.765Z,13.40
2019-02-28T21:45:54.417Z,11.70
2019-02-28T21:48:25.777Z,13.67
2019-02-28T21:50:56.826Z,15.73
2019-02-28T21:53:29.030Z,11.47
2019-02-28T21:56:00.009Z,12.57
2019-02-28T21:58:31.373Z,16.77
2019-02-28T22:01:02.587Z,11.37
2019-02-28T22:03:34.053Z,19.43
2019-02-28T22:06:04.989Z,13.67
2019-02-28T22:08:35.893Z,12.07
2019-02-28T22:11:07.837Z,16.87
2019-02-28T22:13:38.741Z,15.40
2019-02-28T22:16:09.751Z,16.37
2019-02-28T22:18:40.687Z,21.87
2019-02-28T22:21:11.967Z,23.10
2019-02-28T22:23:43.415Z,17.50
2019-02-28T22:26:14.417Z,18.77
2019-02-28T22:28:46.105Z,14.07
2019-02-28T22:31:43.732Z,20.07
2019-02-28T22:34:24.250Z,13.90
2019-02-28T22:36:55.585Z,17.60
2019-02-28T22:39:26.526Z,15.90
2019-02-28T22:41:57.459Z,19.47
2019-02-28T22:44:28.409Z,14.47
2019-02-28T22:46:59.314Z,16.63
2019-02-28T22:49:30.235Z,20.47
2019-02-28T22:52:01.259Z,22.50
2019-02-28T22:54:32.867Z,16.13
2019-02-28T22:57:03.798Z,21.63
2019-02-28T22:59:35.087Z,19.00
2019-02-28T23:02:06.771Z,20.03
2019-02-28T23:04:38.121Z,25.43
2019-02-28T23:07:09.101Z,17.40
2019-02-28T23:09:40.187Z,19.63
2019-02-28T23:12:11.482Z,20.53
2019-02-28T23:14:42.730Z,26.67
2019-02-28T23:17:14.486Z,25.13
2019-02-28T23:19:45.518Z,25.50
2019-02-28T23:22:16.931Z,22.17
2019-02-28T23:24:48.532Z,23.63
2019-02-28T23:27:20.032Z,20.90
2019-02-28T23:30:10.159Z,17.67
2019-02-28T23:32:59.409Z,28.27
2019-02-28T23:35:40.852Z,30.93
2019-02-28T23:38:12.094Z,26.70
2019-02-28T23:40:43.007Z,22.23
2019-02-28T23:43:14.356Z,21.30
2019-02-28T23:45:45.904Z,25.47
2019-02-28T23:48:17.514Z,21.67
2019-02-28T23:50:48.804Z,19.77
2019-02-28T23:53:19.852Z,20.23
2019-02-28T23:55:50.764Z,34.83
2019-02-28T23:58:21.711Z,28.03
